Main page
METAR-TAF:

METAR-TAF

Airports :

Beirut Air Base

Beirut, Lebanon

latitude: 33-49N, longitude: 035-29E, elevation: 29 m

Current weather observation

The report was made 16 minutes ago, at 22:00 UTC
Wind 4 kt from the East/Southeast
Temperature 16°C
Humidity 63%
Pressure 1017 hPa
Visibility: 8000 m
Scattered clouds at a height of 10000 ft

METAR: OLBA 102200Z 11004KT 8000 SCT100 16/09 Q1017 NOSIG

Time: 00:16 (22:16 UTC)

Forecast

The report was made 6 hours and 16 minutes ago, at 16:00 UTC
Forecast valid from 10 at 18 UTC to 11 at 24 UTC
Wind 3 kt from variable directions
Visibility 10 km or more
no clouds below 1500 m and no cumulonimbus
Becoming
from 11 at 06 UTC to 11 at 08 UTC
Wind 13 kt from the North/Northwest
Visibility: 8000 m
Few clouds at a height of 3000 ft
Becoming
from 11 at 18 UTC to 11 at 20 UTC
Wind 6 kt from the Southeast

TAF: OLBA 101600Z 1018/1124 VRB03KT CAVOK BECMG 1106/1108 34013KT 8000 FEW030 BECMG 1118/1120 14006KT

Weather observations and forecasts of more than 4000 airports (METAR and TAF reports).

The available stations are represented by yellow and red dots on the map.

Hover mouse over dot to see the name of the station.

Then click to see weather observations and forecasts.

To change the map : click on the green buttons with a black cross to zoom in, on the green button with a dash to zoom out, or on the green arrows for adjacent maps.


METAR-TAF: